Time;durP1;ratioP1;P1;durP2;ratioP2;P2;SDS_P1;SDS_P2;PMS_P1;PMS_P2;Temp;Humidity;BMP_temperature;BMP_pressure;BME280_temperature;BME280_humidity;BME280_pressure;Samples;Min_cycle;Max_cycle;Signal;HPM_P1;HPM_P2
2022/04/13 00:00:31;;;;;;;16.07;6.90;;;16.80;85.40;;;;;;5085452;28;20425;-68
2022/04/13 00:02:57;;;;;;;16.67;6.72;;;16.70;85.50;;;;;;5087059;28;20413;-67
2022/04/13 00:05:23;;;;;;;16.15;5.97;;;16.70;85.70;;;;;;5088927;28;21147;-67
2022/04/13 00:07:48;;;;;;;14.93;5.82;;;16.80;85.70;;;;;;5087204;28;20488;-68
2022/04/13 00:10:14;;;;;;;11.37;5.30;;;16.70;85.90;;;;;;5087847;28;20445;-69
2022/04/13 00:12:40;;;;;;;13.03;5.17;;;16.70;87.00;;;;;;5088850;28;20406;-67
2022/04/13 00:15:07;;;;;;;12.35;4.60;;;16.70;86.30;;;;;;5090238;28;20455;-67
2022/04/13 00:17:34;;;;;;;14.13;5.00;;;16.70;86.50;;;;;;5087647;28;20794;-67
2022/04/13 00:20:00;;;;;;;10.00;4.30;;;16.70;86.70;;;;;;5091164;28;20428;-68
2022/04/13 00:22:25;;;;;;;15.95;4.65;;;16.20;87.70;;;;;;5086871;28;20177;-69
2022/04/13 00:24:51;;;;;;;15.50;4.32;;;15.90;88.60;;;;;;5071679;28;20205;-69
2022/04/13 00:27:17;;;;;;;14.35;4.63;;;15.80;89.30;;;;;;5052294;28;20230;-69
2022/04/13 00:29:42;;;;;;;14.25;4.50;;;15.60;89.80;;;;;;5050842;28;20194;-68
2022/04/13 00:32:08;;;;;;;13.55;4.50;;;15.50;90.00;;;;;;5049326;28;20179;-68
2022/04/13 00:34:34;;;;;;;13.48;4.57;;;15.50;90.20;;;;;;5046295;28;20306;-69
2022/04/13 00:37:00;;;;;;;15.82;4.50;;;15.40;90.30;;;;;;5043650;28;20285;-69
2022/04/13 00:39:27;;;;;;;15.35;4.38;;;15.40;90.50;;;;;;5045546;28;20278;-69
2022/04/13 00:42:04;;;;;;;12.77;4.20;;;15.30;90.60;;;;;;5048122;28;20678;-70
2022/04/13 00:44:29;;;;;;;11.38;3.97;;;15.30;90.80;;;;;;5049609;28;20216;-70
2022/04/13 00:46:56;;;;;;;9.05;3.88;;;15.30;90.90;;;;;;5047853;28;20716;-69
2022/04/13 00:49:23;;;;;;;15.38;4.18;;;15.30;91.00;;;;;;5048997;28;20199;-70
2022/04/13 00:51:49;;;;;;;16.88;3.80;;;15.30;91.20;;;;;;5048304;28;20806;-70
2022/04/13 00:54:17;;;;;;;11.88;4.35;;;15.30;91.20;;;;;;5045531;28;20270;-69
2022/04/13 00:56:45;;;;;;;16.98;4.18;;;15.30;91.40;;;;;;5048576;28;20298;-67
2022/04/13 00:59:13;;;;;;;13.30;4.53;;;15.30;91.50;;;;;;5049887;28;20663;-69
2022/04/13 01:01:42;;;;;;;14.05;4.80;;;15.30;91.60;;;;;;5044723;28;20187;-69
2022/04/13 01:04:11;;;;;;;11.35;4.20;;;15.30;91.80;;;;;;5048880;28;20666;-70
2022/04/13 01:06:37;;;;;;;9.35;4.18;;;15.30;92.00;;;;;;5048013;28;20187;-71
2022/04/13 01:09:03;;;;;;;16.77;5.00;;;15.30;92.10;;;;;;5050142;28;20209;-70
2022/04/13 01:11:29;;;;;;;17.60;5.20;;;15.30;92.30;;;;;;5045466;28;20739;-69
2022/04/13 01:13:56;;;;;;;12.68;4.90;;;15.20;92.40;;;;;;5050275;28;20187;-68
2022/04/13 01:16:23;;;;;;;15.00;4.82;;;15.20;92.60;;;;;;5045688;28;20675;-70
2022/04/13 01:18:49;;;;;;;14.68;5.25;;;15.20;92.70;;;;;;5049757;28;20191;-70
2022/04/13 01:21:17;;;;;;;12.07;5.05;;;15.20;92.90;;;;;;5044962;28;20187;-70
2022/04/13 01:23:43;;;;;;;16.83;5.40;;;15.10;93.00;;;;;;5048003;28;20731;-70
2022/04/13 01:26:10;;;;;;;13.77;5.35;;;15.20;93.20;;;;;;5052298;28;20224;-69
2022/04/13 01:28:36;;;;;;;14.15;5.72;;;15.10;93.30;;;;;;5070573;28;20605;-69
2022/04/13 01:31:02;;;;;;;17.38;5.35;;;15.10;93.50;;;;;;5087277;28;20649;-69
2022/04/13 01:33:29;;;;;;;14.23;5.60;;;15.10;93.60;;;;;;5083914;28;20658;-68
2022/04/13 01:36:01;;;;;;;16.58;5.38;;;15.10;93.80;;;;;;5085980;28;20205;-68
2022/04/13 01:38:30;;;;;;;15.60;4.88;;;15.10;94.00;;;;;;5071075;28;20193;-68
2022/04/13 01:40:57;;;;;;;13.15;5.10;;;15.10;94.10;;;;;;5087609;28;20213;-70
2022/04/13 01:43:24;;;;;;;14.35;5.25;;;15.10;94.20;;;;;;5068355;28;20210;-68
2022/04/13 01:45:50;;;;;;;13.93;5.15;;;15.10;94.40;;;;;;5086651;28;20190;-69
2022/04/13 01:48:17;;;;;;;13.57;5.15;;;15.10;94.40;;;;;;5070855;28;20189;-68
2022/04/13 01:50:42;;;;;;;12.68;5.25;;;15.10;94.50;;;;;;5068265;28;20213;-68
2022/04/13 01:53:08;;;;;;;11.00;5.13;;;15.10;94.60;;;;;;5086565;28;20274;-67
2022/04/13 01:55:34;;;;;;;12.32;5.22;;;15.10;94.80;;;;;;5069095;28;20217;-68
2022/04/13 01:57:59;;;;;;;16.02;5.30;;;15.10;94.90;;;;;;5085949;28;20182;-68
2022/04/13 02:00:25;;;;;;;15.45;5.60;;;15.10;95.00;;;;;;5069591;28;20174;-68
2022/04/13 02:02:52;;;;;;;20.80;5.68;;;15.10;95.10;;;;;;5087015;28;20193;-68
2022/04/13 02:05:18;;;;;;;9.00;4.70;;;15.10;95.10;;;;;;5086885;28;20219;-69
2022/04/13 02:07:43;;;;;;;12.27;4.50;;;15.10;95.30;;;;;;5086529;28;20254;-69
2022/04/13 02:10:09;;;;;;;10.38;4.72;;;15.10;95.30;;;;;;5083611;28;20178;-69
2022/04/13 02:12:36;;;;;;;12.23;4.18;;;15.00;95.30;;;;;;5070790;28;20182;-69
2022/04/13 02:15:03;;;;;;;14.00;3.85;;;15.00;95.40;;;;;;5067329;28;20323;-68
2022/04/13 02:17:29;;;;;;;10.07;4.30;;;15.00;95.50;;;;;;5088226;28;20201;-69
2022/04/13 02:19:55;;;;;;;10.85;3.95;;;14.90;95.60;;;;;;5087384;28;20212;-68
2022/04/13 02:22:20;;;;;;;8.38;3.83;;;14.90;95.70;;;;;;5068973;28;20185;-69
2022/04/13 02:24:46;;;;;;;10.98;4.70;;;14.90;95.70;;;;;;5084251;28;20190;-68
2022/04/13 02:27:12;;;;;;;15.68;5.82;;;14.90;95.80;;;;;;5088470;28;20214;-69
2022/04/13 02:29:39;;;;;;;14.57;5.55;;;14.90;95.90;;;;;;5087331;28;20311;-69
2022/04/13 02:32:06;;;;;;;15.88;5.97;;;14.80;95.90;;;;;;5084884;28;20190;-70
2022/04/13 02:34:32;;;;;;;13.98;6.32;;;14.80;96.00;;;;;;5085704;28;20194;-69
2022/04/13 02:36:58;;;;;;;15.40;5.97;;;14.70;96.20;;;;;;5085693;28;20198;-69
2022/04/13 02:39:24;;;;;;;13.13;6.95;;;14.80;96.30;;;;;;5087100;28;20657;-68
2022/04/13 02:41:49;;;;;;;17.60;7.85;;;14.70;96.40;;;;;;5068204;28;20692;-69
2022/04/13 02:44:15;;;;;;;15.80;7.93;;;14.70;96.50;;;;;;5069376;28;20638;-68
2022/04/13 02:46:41;;;;;;;18.67;7.20;;;14.60;96.60;;;;;;5085731;28;20630;-70
2022/04/13 02:49:07;;;;;;;23.35;7.85;;;14.60;96.70;;;;;;5064390;28;20297;-68
2022/04/13 02:51:33;;;;;;;19.80;8.48;;;14.60;96.80;;;;;;5067094;28;21279;-69
2022/04/13 02:53:59;;;;;;;19.95;7.63;;;15.10;97.20;;;;;;5085209;28;20181;-69
2022/04/13 02:56:24;;;;;;;15.43;7.32;;;14.90;97.20;;;;;;5069014;28;20287;-68
2022/04/13 02:58:50;;;;;;;17.83;6.95;;;14.80;97.40;;;;;;5068239;28;20194;-67
2022/04/13 03:01:15;;;;;;;16.17;8.00;;;14.70;97.50;;;;;;5086959;28;20269;-68
2022/04/13 03:03:41;;;;;;;16.23;6.47;;;14.60;97.60;;;;;;5066351;28;20190;-69
2022/04/13 03:06:07;;;;;;;22.40;7.05;;;14.60;97.70;;;;;;5085109;28;20197;-68
2022/04/13 03:08:33;;;;;;;17.63;6.88;;;14.60;97.80;;;;;;5068279;28;20265;-68
2022/04/13 03:10:58;;;;;;;16.92;6.50;;;14.60;97.80;;;;;;5087076;28;20292;-67
2022/04/13 03:13:24;;;;;;;14.02;6.30;;;14.50;97.80;;;;;;5084835;28;20243;-68
2022/04/13 03:15:49;;;;;;;15.55;6.70;;;14.40;97.90;;;;;;5086295;28;20897;-69
2022/04/13 03:18:15;;;;;;;18.67;6.78;;;14.40;98.00;;;;;;5085068;28;20671;-69
2022/04/13 03:20:41;;;;;;;16.23;6.35;;;14.40;98.00;;;;;;5082690;28;21466;-68
2022/04/13 03:23:06;;;;;;;13.52;6.47;;;14.40;98.10;;;;;;5085408;28;20181;-69
2022/04/13 03:25:33;;;;;;;19.35;6.55;;;14.30;98.20;;;;;;5069061;28;20193;-69
2022/04/13 03:27:59;;;;;;;16.58;6.82;;;14.30;98.30;;;;;;5081983;28;20238;-68
2022/04/13 03:30:24;;;;;;;15.88;6.93;;;14.30;98.40;;;;;;5086448;28;20192;-68
2022/04/13 03:32:51;;;;;;;16.33;7.07;;;14.30;98.40;;;;;;5067258;28;20185;-67
2022/04/13 03:35:17;;;;;;;16.67;7.10;;;14.30;98.40;;;;;;5071665;28;20204;-69
2022/04/13 03:37:42;;;;;;;15.75;6.68;;;14.30;98.60;;;;;;5089766;28;20178;-68
2022/04/13 03:40:10;;;;;;;18.23;6.85;;;14.20;98.60;;;;;;5090060;28;20186;-67
2022/04/13 03:42:40;;;;;;;18.88;7.30;;;14.20;98.70;;;;;;5068820;28;20182;-68
2022/04/13 03:45:08;;;;;;;16.73;7.80;;;14.10;98.80;;;;;;5090944;28;20190;-67
2022/04/13 03:47:34;;;;;;;17.15;7.95;;;14.10;99.00;;;;;;5088423;28;20197;-67
2022/04/13 03:50:00;;;;;;;18.70;7.28;;;14.10;99.10;;;;;;5070299;28;20182;-69
2022/04/13 03:52:26;;;;;;;21.23;7.88;;;14.20;99.20;;;;;;5088696;28;20190;-68
2022/04/13 03:54:52;;;;;;;17.60;7.97;;;14.10;99.30;;;;;;5089350;28;20246;-70
2022/04/13 03:57:18;;;;;;;18.08;8.48;;;14.00;99.40;;;;;;5084905;28;20264;-67
2022/04/13 03:59:44;;;;;;;18.98;8.20;;;14.00;99.50;;;;;;5089723;28;20651;-67
2022/04/13 04:02:09;;;;;;;18.95;8.60;;;14.00;99.60;;;;;;5070490;28;20186;-67
2022/04/13 04:04:35;;;;;;;16.25;7.80;;;14.00;99.70;;;;;;5069459;28;20186;-68
2022/04/13 04:07:01;;;;;;;19.27;8.63;;;14.00;99.80;;;;;;5086583;28;20205;-69
2022/04/13 04:09:26;;;;;;;17.50;8.70;;;14.00;99.80;;;;;;5090756;28;20262;-67
2022/04/13 04:11:52;;;;;;;18.00;8.82;;;13.90;99.90;;;;;;5089293;28;20177;-68
2022/04/13 04:14:18;;;;;;;17.88;8.98;;;14.00;99.90;;;;;;5090188;28;20650;-70
2022/04/13 04:16:43;;;;;;;22.25;9.10;;;13.90;99.90;;;;;;5070230;28;20202;-69
2022/04/13 04:19:09;;;;;;;21.02;9.23;;;13.90;99.90;;;;;;5087125;28;20193;-70
2022/04/13 04:21:35;;;;;;;18.23;9.35;;;13.90;99.90;;;;;;5088832;28;20707;-69
2022/04/13 04:24:01;;;;;;;23.77;9.38;;;13.90;99.90;;;;;;5082275;28;20197;-67
2022/04/13 04:26:26;;;;;;;20.17;9.88;;;13.90;99.90;;;;;;5088312;28;20600;-67
2022/04/13 04:28:52;;;;;;;21.42;10.35;;;13.90;99.90;;;;;;5072177;28;20181;-69
2022/04/13 04:31:49;;;;;;;18.98;9.60;;;13.90;99.90;;;;;;5067000;28;20197;-68
2022/04/13 04:34:04;;;;;;;24.17;10.57;;;13.90;99.90;;;;;;5068180;28;20198;-66
2022/04/13 04:36:29;;;;;;;19.98;10.95;;;13.80;99.90;;;;;;5069843;28;20201;-68
2022/04/13 04:38:55;;;;;;;20.65;10.50;;;13.90;99.90;;;;;;5087387;28;20191;-67
2022/04/13 04:41:20;;;;;;;19.17;9.98;;;13.80;99.90;;;;;;5088105;28;20177;-66
2022/04/13 04:43:46;;;;;;;25.45;9.88;;;13.90;99.90;;;;;;5089494;28;20185;-66
2022/04/13 04:46:12;;;;;;;21.70;8.45;;;13.80;99.90;;;;;;5087410;28;20190;-68
2022/04/13 04:48:42;;;;;;;19.73;8.07;;;13.80;99.90;;;;;;5070904;28;20189;-69
2022/04/13 04:51:08;;;;;;;19.45;8.20;;;13.80;99.90;;;;;;5088428;28;20645;-67
2022/04/13 04:53:35;;;;;;;20.63;8.43;;;13.70;99.90;;;;;;5084979;28;20326;-69
2022/04/13 04:56:00;;;;;;;16.50;8.65;;;13.70;99.90;;;;;;5086874;28;20677;-66
2022/04/13 04:58:27;;;;;;;17.17;8.70;;;13.70;99.90;;;;;;5087947;28;20190;-68
2022/04/13 05:00:53;;;;;;;20.08;7.72;;;13.60;99.90;;;;;;5084643;28;20178;-68
2022/04/13 05:03:19;;;;;;;21.48;8.18;;;13.60;99.90;;;;;;5084000;28;20208;-68
2022/04/13 05:05:45;;;;;;;14.77;8.13;;;13.60;99.90;;;;;;5063926;28;20701;-68
2022/04/13 05:08:10;;;;;;;15.40;8.40;;;13.50;99.90;;;;;;5063852;28;20188;-69
2022/04/13 05:10:36;;;;;;;21.80;8.80;;;13.50;99.90;;;;;;5084816;28;20200;-72
2022/04/13 05:13:02;;;;;;;23.75;9.20;;;13.40;99.90;;;;;;5087360;28;20204;-69
2022/04/13 05:15:29;;;;;;;21.63;9.93;;;13.40;99.90;;;;;;5083713;28;20247;-70
2022/04/13 05:17:55;;;;;;;29.08;9.88;;;13.30;99.90;;;;;;5089176;28;20272;-67
2022/04/13 05:20:20;;;;;;;23.23;10.43;;;13.30;99.90;;;;;;5067500;28;20189;-68
2022/04/13 05:22:46;;;;;;;21.92;10.10;;;13.30;99.90;;;;;;5085485;28;20182;-68
2022/04/13 05:25:15;;;;;;;18.15;10.02;;;13.30;99.90;;;;;;5068694;28;20185;-70
2022/04/13 05:27:41;;;;;;;21.08;10.50;;;13.20;99.90;;;;;;5083930;28;20912;-68
2022/04/13 05:30:09;;;;;;;25.80;11.48;;;13.20;99.90;;;;;;5085409;28;20642;-68
2022/04/13 05:32:47;;;;;;;27.88;11.30;;;13.20;99.90;;;;;;5070562;28;20654;-68
2022/04/13 05:35:13;;;;;;;25.90;10.98;;;13.10;99.90;;;;;;5067608;28;20182;-69
2022/04/13 05:37:39;;;;;;;26.08;12.07;;;13.10;99.90;;;;;;5068700;28;20209;-68
2022/04/13 05:40:05;;;;;;;25.27;11.38;;;13.00;99.90;;;;;;5086889;28;20181;-68
2022/04/13 05:42:31;;;;;;;26.23;11.27;;;13.10;99.90;;;;;;5067978;28;20623;-70
2022/04/13 05:44:58;;;;;;;25.15;11.68;;;13.10;99.90;;;;;;5087125;28;20175;-68
2022/04/13 05:47:24;;;;;;;26.85;11.52;;;13.10;99.90;;;;;;5087251;28;20574;-68
2022/04/13 05:49:49;;;;;;;31.33;12.30;;;13.10;99.90;;;;;;5067292;28;20190;-70
2022/04/13 05:52:15;;;;;;;25.67;11.52;;;13.10;99.90;;;;;;5087778;28;20255;-71
2022/04/13 05:54:41;;;;;;;32.35;11.73;;;13.10;99.90;;;;;;5063618;28;20178;-68
2022/04/13 05:57:07;;;;;;;27.42;11.93;;;13.20;99.90;;;;;;5069168;28;20202;-68
2022/04/13 05:59:33;;;;;;;27.42;12.65;;;13.20;99.90;;;;;;5067735;28;20213;-68
2022/04/13 06:01:59;;;;;;;30.58;11.25;;;13.20;99.90;;;;;;5080234;28;20610;-65
2022/04/13 06:04:25;;;;;;;23.20;11.60;;;13.20;99.90;;;;;;5083531;28;20200;-67
2022/04/13 06:06:51;;;;;;;23.73;10.73;;;13.20;99.90;;;;;;5069651;28;20245;-67
2022/04/13 06:09:17;;;;;;;27.63;11.63;;;13.20;99.90;;;;;;5064222;28;20273;-69
2022/04/13 06:11:42;;;;;;;24.40;10.93;;;13.20;99.90;;;;;;5069459;28;20192;-70
2022/04/13 06:14:08;;;;;;;21.50;10.90;;;13.30;99.90;;;;;;5081962;28;20197;-65
2022/04/13 06:16:34;;;;;;;27.58;10.32;;;13.30;99.90;;;;;;5085118;28;20206;-68
2022/04/13 06:18:59;;;;;;;26.63;10.02;;;13.40;99.90;;;;;;5067786;28;20274;-68
2022/04/13 06:21:25;;;;;;;21.23;10.13;;;13.40;99.90;;;;;;5066382;28;20631;-67
2022/04/13 06:23:51;;;;;;;23.58;10.27;;;13.40;99.90;;;;;;5086241;28;20182;-68
2022/04/13 06:26:17;;;;;;;24.92;10.25;;;13.50;99.90;;;;;;5060694;28;20609;-68
2022/04/13 06:28:43;;;;;;;23.77;10.65;;;13.50;99.90;;;;;;5047166;28;20215;-68
2022/04/13 06:31:09;;;;;;;22.00;9.48;;;13.50;99.90;;;;;;5028555;28;20211;-68
2022/04/13 06:33:35;;;;;;;23.77;9.60;;;13.50;99.90;;;;;;5047898;28;20194;-68
2022/04/13 06:36:01;;;;;;;28.35;10.23;;;13.60;99.90;;;;;;5043217;28;20205;-66
2022/04/13 06:38:27;;;;;;;22.08;8.93;;;13.60;99.90;;;;;;5044934;28;20179;-69
2022/04/13 06:40:52;;;;;;;23.48;9.07;;;13.60;99.90;;;;;;5048355;28;20194;-68
2022/04/13 06:43:18;;;;;;;31.17;10.18;;;13.60;99.90;;;;;;5047292;28;20185;-68
2022/04/13 06:45:44;;;;;;;18.52;8.50;;;13.70;99.90;;;;;;5045531;28;20713;-68
2022/04/13 06:48:10;;;;;;;23.88;9.30;;;13.70;99.90;;;;;;5044735;28;20175;-67
2022/04/13 06:50:35;;;;;;;23.23;8.85;;;13.70;99.90;;;;;;5047214;28;20195;-68
2022/04/13 06:53:01;;;;;;;21.85;8.32;;;13.70;99.90;;;;;;5047488;28;20183;-67
2022/04/13 06:55:27;;;;;;;27.00;9.07;;;13.70;99.90;;;;;;5048437;28;20202;-69
2022/04/13 06:57:52;;;;;;;21.30;8.52;;;13.80;99.90;;;;;;5046528;28;20194;-67
2022/04/13 07:00:18;;;;;;;19.85;7.90;;;13.80;99.90;;;;;;5042795;28;20175;-70
2022/04/13 07:02:44;;;;;;;22.75;8.45;;;13.80;99.90;;;;;;5043306;28;20190;-68
2022/04/13 07:05:09;;;;;;;28.55;10.88;;;13.90;99.90;;;;;;5046790;28;20187;-67
2022/04/13 07:07:38;;;;;;;17.02;7.85;;;14.00;99.90;;;;;;5048948;28;20187;-68
2022/04/13 07:10:05;;;;;;;22.20;7.43;;;14.00;99.90;;;;;;5048231;28;20598;-68
2022/04/13 07:12:38;;;;;;;17.77;8.23;;;14.00;99.90;;;;;;5051986;28;20244;-67
2022/04/13 07:15:04;;;;;;;20.95;7.43;;;14.10;99.90;;;;;;5051098;28;20183;-69
2022/04/13 07:17:30;;;;;;;20.95;7.63;;;14.10;99.90;;;;;;5049182;28;20743;-69
2022/04/13 07:19:56;;;;;;;15.57;7.57;;;14.10;99.90;;;;;;5044053;28;20271;-70
2022/04/13 07:22:21;;;;;;;19.10;7.47;;;14.20;99.90;;;;;;5036530;28;20188;-67
2022/04/13 07:24:47;;;;;;;23.35;8.10;;;14.20;99.90;;;;;;5048704;28;20188;-67
2022/04/13 07:27:13;;;;;;;17.73;7.75;;;14.20;99.90;;;;;;5075519;28;20280;-69
2022/04/13 07:29:39;;;;;;;20.80;7.22;;;14.30;99.90;;;;;;5086677;28;20197;-71
2022/04/13 07:32:06;;;;;;;22.63;6.82;;;14.40;99.90;;;;;;5092287;28;20193;-69
2022/04/13 07:34:32;;;;;;;23.52;7.03;;;14.40;99.90;;;;;;5088927;28;20201;-69
2022/04/13 07:36:58;;;;;;;22.55;6.80;;;14.50;99.90;;;;;;5070253;28;20214;-69
2022/04/13 07:39:24;;;;;;;21.45;6.80;;;14.60;99.90;;;;;;5083594;28;20709;-73
2022/04/13 07:41:50;;;;;;;18.60;6.32;;;14.60;99.90;;;;;;5070894;28;20280;-69
2022/04/13 07:44:15;;;;;;;15.90;6.35;;;14.60;99.90;;;;;;5088759;28;20205;-66
2022/04/13 07:46:41;;;;;;;22.33;6.57;;;14.60;99.90;;;;;;5073237;28;20186;-69
2022/04/13 07:49:08;;;;;;;17.27;6.05;;;14.70;99.90;;;;;;5071622;28;20272;-69
2022/04/13 07:51:34;;;;;;;19.92;6.63;;;14.70;99.90;;;;;;5090617;28;20606;-69
2022/04/13 07:54:01;;;;;;;17.83;6.03;;;14.80;99.90;;;;;;5070481;28;20200;-69
2022/04/13 07:56:28;;;;;;;17.67;6.63;;;14.80;99.90;;;;;;5072682;28;20221;-69
2022/04/13 07:58:53;;;;;;;19.92;6.30;;;14.80;99.90;;;;;;5070341;28;20415;-69
2022/04/13 08:01:19;;;;;;;19.52;6.43;;;15.60;99.90;;;;;;5070079;28;20759;-67
2022/04/13 08:03:44;;;;;;;19.15;6.03;;;16.00;99.50;;;;;;5086845;28;20413;-71
2022/04/13 08:06:13;;;;;;;22.30;5.93;;;16.30;98.50;;;;;;5071397;28;20230;-69
2022/04/13 08:08:39;;;;;;;15.57;5.68;;;15.90;99.10;;;;;;5070253;28;20205;-68
2022/04/13 08:11:05;;;;;;;17.50;5.65;;;15.70;99.50;;;;;;5091636;28;20178;-68
2022/04/13 08:13:32;;;;;;;14.65;5.55;;;15.50;99.70;;;;;;5088978;28;20209;-68
2022/04/13 08:15:58;;;;;;;18.67;5.90;;;15.40;99.90;;;;;;5071889;28;20290;-68
2022/04/13 08:18:23;;;;;;;19.65;5.97;;;15.30;99.90;;;;;;5089439;28;20634;-68
2022/04/13 08:20:49;;;;;;;21.88;6.53;;;15.20;99.90;;;;;;5066793;28;20182;-70
2022/04/13 08:23:15;;;;;;;16.63;5.93;;;15.10;99.90;;;;;;5085461;28;20196;-69
2022/04/13 08:25:41;;;;;;;18.08;5.80;;;15.10;99.90;;;;;;5073290;28;20182;-68
2022/04/13 08:28:07;;;;;;;23.77;6.47;;;15.10;99.90;;;;;;5089715;28;20695;-71
2022/04/13 08:30:32;;;;;;;21.98;6.30;;;15.10;99.90;;;;;;5087027;28;20226;-66
2022/04/13 08:32:58;;;;;;;14.82;6.30;;;15.00;99.90;;;;;;5088580;28;20185;-70
2022/04/13 08:35:24;;;;;;;21.83;6.03;;;15.00;99.90;;;;;;5071674;28;20190;-68
2022/04/13 08:37:49;;;;;;;22.92;6.82;;;15.00;99.90;;;;;;5054432;28;20235;-68
2022/04/13 08:40:17;;;;;;;19.65;6.30;;;15.00;99.90;;;;;;5068018;28;20198;-67
2022/04/13 08:42:52;;;;;;;18.50;6.20;;;14.90;99.90;;;;;;5090497;28;20190;-67
2022/04/13 08:45:31;;;;;;;19.52;6.35;;;14.90;99.90;;;;;;5072154;28;20182;-68
2022/04/13 08:47:57;;;;;;;17.30;6.60;;;14.90;99.90;;;;;;5090188;28;20626;-67
2022/04/13 08:50:27;;;;;;;20.70;6.95;;;14.90;99.90;;;;;;5071558;28;20193;-68
2022/04/13 08:53:04;;;;;;;19.05;6.43;;;15.00;99.90;;;;;;5088102;28;20525;-68
2022/04/13 08:55:31;;;;;;;18.73;6.07;;;15.10;99.90;;;;;;5071154;28;20550;-69
2022/04/13 08:58:02;;;;;;;17.77;6.80;;;15.30;99.90;;;;;;5071371;28;20741;-69
2022/04/13 09:00:30;;;;;;;;;;;15.60;99.90;;;;;;5087206;28;20499;-68
2022/04/13 09:03:30;;;;;;;15.05;5.55;;;16.00;99.90;;;;;;5069273;28;20165;-68
2022/04/13 09:05:57;;;;;;;14.35;6.00;;;16.40;99.90;;;;;;5088333;28;20194;-67
2022/04/13 09:08:35;;;;;;;19.10;6.50;;;16.70;99.90;;;;;;5068564;28;20243;-68
2022/04/13 09:11:02;;;;;;;15.73;5.45;;;16.80;99.30;;;;;;5087694;28;20185;-67
2022/04/13 09:13:32;;;;;;;16.92;5.30;;;17.00;98.80;;;;;;5087940;28;20221;-70
2022/04/13 09:15:59;;;;;;;14.52;5.68;;;17.00;98.20;;;;;;5089203;28;20206;-70
2022/04/13 09:18:24;;;;;;;18.17;5.20;;;16.90;97.70;;;;;;5070381;28;20194;-68
2022/04/13 09:20:50;;;;;;;12.10;4.28;;;16.90;97.60;;;;;;5085094;28;20177;-69
2022/04/13 09:23:16;;;;;;;20.33;5.47;;;16.80;97.60;;;;;;5068468;28;20244;-68
2022/04/13 09:25:43;;;;;;;13.35;4.85;;;16.90;97.40;;;;;;5085906;28;20189;-68
2022/04/13 09:28:09;;;;;;;12.43;4.70;;;17.00;97.20;;;;;;5070808;28;20189;-69
2022/04/13 09:30:35;;;;;;;16.10;5.10;;;17.10;96.80;;;;;;5089529;28;20182;-69
2022/04/13 09:33:02;;;;;;;15.77;4.65;;;17.10;96.70;;;;;;5084501;28;21015;-68
2022/04/13 09:35:32;;;;;;;10.85;4.05;;;17.10;96.60;;;;;;5089198;28;20182;-68
2022/04/13 09:38:04;;;;;;;11.55;4.15;;;17.20;96.20;;;;;;5084611;28;20178;-70
2022/04/13 09:40:37;;;;;;;16.90;4.22;;;17.20;96.00;;;;;;5086470;28;20219;-68
2022/04/13 09:43:05;;;;;;;18.10;4.75;;;17.10;95.80;;;;;;5085934;28;20639;-69
2022/04/13 09:45:43;;;;;;;12.10;4.03;;;17.10;95.70;;;;;;5084784;28;20673;-69
2022/04/13 09:48:17;;;;;;;13.05;4.78;;;17.00;95.50;;;;;;5052520;28;20174;-69
2022/04/13 09:50:45;;;;;;;13.80;4.40;;;16.90;95.50;;;;;;5086649;28;20185;-69
2022/04/13 09:53:13;;;;;;;12.90;3.97;;;16.90;95.50;;;;;;5087889;28;20178;-68
2022/04/13 09:55:40;;;;;;;14.32;4.68;;;16.90;95.50;;;;;;5086321;28;20204;-69
2022/04/13 09:58:11;;;;;;;9.52;3.90;;;16.90;95.40;;;;;;5066768;28;20621;-69
2022/04/13 10:00:38;;;;;;;18.63;4.28;;;16.80;95.30;;;;;;5065841;28;20674;-70
2022/04/13 10:03:10;;;;;;;17.27;4.00;;;16.90;95.20;;;;;;5085827;28;20182;-71
2022/04/13 10:05:36;;;;;;;12.82;3.90;;;16.80;95.50;;;;;;5089251;28;20189;-69
2022/04/13 10:08:08;;;;;;;10.10;3.90;;;16.80;95.10;;;;;;5068990;28;20209;-68
2022/04/13 10:10:35;;;;;;;12.55;4.32;;;16.60;95.40;;;;;;5087124;28;20178;-69
2022/04/13 10:13:01;;;;;;;14.48;4.25;;;16.60;95.20;;;;;;5087133;28;20206;-69
2022/04/13 10:15:26;;;;;;;13.07;4.35;;;16.50;95.40;;;;;;5068027;28;20181;-69
2022/04/13 10:18:00;;;;;;;14.65;4.40;;;16.40;95.40;;;;;;5085120;28;20209;-67
2022/04/13 10:20:43;;;;;;;18.25;4.35;;;16.30;95.40;;;;;;5088612;28;20209;-68
2022/04/13 10:23:09;;;;;;;13.30;4.03;;;16.20;95.50;;;;;;5084970;28;20650;-67
2022/04/13 10:25:35;;;;;;;18.90;4.60;;;16.00;95.60;;;;;;5089064;28;20190;-68
2022/04/13 10:28:02;;;;;;;13.57;4.32;;;16.00;95.70;;;;;;5028889;28;20276;-68
2022/04/13 10:30:36;;;;;;;15.40;4.78;;;16.00;96.20;;;;;;5047014;28;20187;-68
2022/04/13 10:33:08;;;;;;;12.25;4.10;;;15.90;95.80;;;;;;5042315;28;20183;-67
2022/04/13 10:35:36;;;;;;;13.65;4.18;;;15.80;95.90;;;;;;5044730;28;20190;-68
2022/04/13 10:38:03;;;;;;;11.32;3.95;;;15.80;96.00;;;;;;5046367;28;20686;-68
2022/04/13 10:40:34;;;;;;;11.23;4.40;;;15.80;96.20;;;;;;5046978;28;20201;-68
2022/04/13 10:43:03;;;;;;;14.80;4.00;;;15.80;96.20;;;;;;5041982;28;20183;-68
2022/04/13 10:45:29;;;;;;;13.57;4.50;;;15.70;96.20;;;;;;5051733;28;20182;-68
2022/04/13 10:48:06;;;;;;;19.17;4.97;;;15.80;96.40;;;;;;5051571;28;20175;-68
2022/04/13 10:50:48;;;;;;;13.07;4.18;;;15.70;96.40;;;;;;5053872;28;20531;-68
2022/04/13 10:53:27;;;;;;;18.80;3.90;;;15.70;96.50;;;;;;5052420;28;20226;-70
2022/04/13 10:56:04;;;;;;;12.23;4.30;;;15.70;96.60;;;;;;5053788;28;20213;-69
2022/04/13 10:59:01;;;;;;;12.35;4.38;;;15.70;96.70;;;;;;5052012;28;20179;-70
2022/04/13 11:01:30;;;;;;;11.05;4.00;;;15.80;96.70;;;;;;5052758;28;20202;-68
2022/04/13 11:03:57;;;;;;;10.90;3.63;;;15.80;96.70;;;;;;5051410;28;20197;-69
2022/04/13 11:06:24;;;;;;;10.95;3.63;;;15.80;97.10;;;;;;5051362;28;20194;-68
2022/04/13 11:09:29;;;;;;;19.05;3.80;;;15.80;97.10;;;;;;5051704;28;20733;-69
2022/04/13 11:11:56;;;;;;;16.90;3.67;;;15.90;96.70;;;;;;5049035;28;20199;-69
2022/04/13 11:14:24;;;;;;;10.05;3.30;;;16.10;96.80;;;;;;5052605;28;20206;-68
2022/04/13 11:17:15;;;;;;;12.40;3.30;;;16.20;96.60;;;;;;5048638;28;20421;-69
2022/04/13 11:19:42;;;;;;;15.27;3.03;;;17.00;94.50;;;;;;5043718;28;20663;-68
2022/04/13 11:22:10;;;;;;;12.82;3.30;;;16.80;94.90;;;;;;5050975;28;20412;-68
2022/04/13 11:24:46;;;;;;;11.52;3.25;;;17.50;93.70;;;;;;5053784;28;20219;-68
2022/04/13 11:27:11;;;;;;;14.15;3.05;;;17.30;94.00;;;;;;5077931;28;20574;-67
2022/04/13 11:29:42;;;;;;;12.35;3.15;;;17.20;94.20;;;;;;5091073;28;20246;-68
2022/04/13 11:32:16;;;;;;;14.65;3.00;;;17.10;94.40;;;;;;5073927;28;20250;-67
2022/04/13 11:34:44;;;;;;;10.20;2.92;;;17.10;94.60;;;;;;5074185;28;20289;-70
2022/04/13 11:37:15;;;;;;;8.23;2.97;;;17.10;94.50;;;;;;5092510;28;20286;-69
2022/04/13 11:39:52;;;;;;;11.02;3.05;;;17.20;94.30;;;;;;5073469;28;20178;-68
2022/04/13 11:42:21;;;;;;;8.35;3.00;;;17.20;94.20;;;;;;5072004;28;20173;-68
2022/04/13 11:45:05;;;;;;;;;;;17.30;94.10;;;;;;5075790;28;20027;-68
2022/04/13 11:47:43;;;;;;;;;;;17.40;94.20;;;;;;5089410;28;19923;-69
2022/04/13 11:50:17;;;;;;;;;;;17.60;94.20;;;;;;5074059;28;19959;-69
2022/04/13 11:52:50;;;;;;;;;;;17.70;94.10;;;;;;5092356;28;19912;-68
2022/04/13 11:55:18;;;;;;;10.90;3.30;;;17.80;93.80;;;;;;5088865;28;20184;-68
2022/04/13 11:58:07;;;;;;;14.43;3.15;;;17.90;93.90;;;;;;5070364;28;20936;-67
2022/04/13 12:00:56;;;;;;;10.68;2.78;;;19.20;90.10;;;;;;5087034;28;20426;-68
2022/04/13 12:03:24;;;;;;;9.32;2.70;;;19.80;85.70;;;;;;5068144;28;20409;-67
2022/04/13 12:05:52;;;;;;;10.77;2.85;;;20.10;82.50;;;;;;5071818;28;20401;-68
2022/04/13 12:08:42;;;;;;;12.95;2.95;;;20.30;81.10;;;;;;5069957;28;20413;-68
2022/04/13 12:11:12;;;;;;;13.25;3.00;;;20.40;80.30;;;;;;5088470;28;20451;-69
2022/04/13 12:13:47;;;;;;;14.20;2.95;;;20.50;79.80;;;;;;5088925;28;20919;-69
2022/04/13 12:16:20;;;;;;;9.45;2.67;;;20.60;79.30;;;;;;5084290;28;20445;-67
2022/04/13 12:18:46;;;;;;;12.70;2.80;;;20.70;78.10;;;;;;5070005;28;20869;-67
2022/04/13 12:21:15;;;;;;;17.05;3.20;;;20.60;77.60;;;;;;5085048;28;20470;-65
2022/04/13 12:23:42;;;;;;;11.70;2.88;;;20.60;77.90;;;;;;5070558;28;20405;-69
2022/04/13 12:26:08;;;;;;;11.23;2.90;;;20.50;77.60;;;;;;5087972;28;20441;-67
2022/04/13 12:28:34;;;;;;;12.90;3.35;;;20.40;77.20;;;;;;5089505;28;20446;-69
2022/04/13 12:31:09;;;;;;;10.10;3.03;;;20.40;77.60;;;;;;5088420;28;20410;-68
2022/04/13 12:33:36;;;;;;;12.00;3.10;;;20.30;77.80;;;;;;5070587;28;20905;-69
2022/04/13 12:36:10;;;;;;;11.50;2.80;;;20.40;77.70;;;;;;5087236;28;21180;-68
2022/04/13 12:38:46;;;;;;;12.20;2.50;;;20.60;77.00;;;;;;5069203;28;20411;-69
2022/04/13 12:41:17;;;;;;;8.77;2.20;;;20.80;75.30;;;;;;5087229;28;20929;-68